M I D A S
Marine Information and Data Acquisition System
Tripno 1544 of the Zeeleeuw from 2008-08-26 08:33:58 to 2008-08-26 13:35:23
Back to CruiseResearch ActivitiesStationsMapUnderway DataData graphs

EquipmentUnitsComments
TimeDGPSUTC
LatitudeDGPSDM.mWGS84
LongitudeDGPSDM.mWGS84
SpeedMeteo Stationm/sRelative wind speed
DirectionMeteo StationdegRelative wind direction
TemperatureMeteo Stationdeg CelciusAir temperature
PressureMeteo StationPaAtmospheric pressure
HumidityMeteo Station%Relative humidity
Missing or incorrect values are displayed as -999
Metereological data collected by the RV Zeeleeuw from 2008-08-26 08:36:44 to 2008-08-26 13:38:50
Time Latitude Longitude Speed Direction Temperature Pressure Humidity
2008-08-26 08:37 51°13.638 2°55.989 -999 -999 -999 -999 -999
2008-08-26 08:38 51°13.665 2°55.887 -999 -999 -999 -999 -999
2008-08-26 08:39 51°13.686 2°55.793 7.3 44 17.4 -999 63
2008-08-26 08:40 51°13.691 2°55.738 4.6 37 17.3 102090 73
2008-08-26 08:41 51°13.696 2°55.731 2.2 35 17.4 102100 74
2008-08-26 08:42 51°13.751 2°55.711 4 246 17.4 102100 74
2008-08-26 08:43 51°13.854 2°55.623 2.7 35 17.4 102100 73
2008-08-26 08:44 51°13.973 2°55.533 3.3 236 17.5 102110 73
2008-08-26 08:45 51°14.093 2°55.439 3.3 240 17.5 102090 73
2008-08-26 08:46 51°14.222 2°55.314 5.7 38 17.5 102090 73
2008-08-26 08:47 51°14.343 2°55.127 10.5 35 17.6 102080 74
2008-08-26 08:48 51°14.473 2°54.936 10.1 34 17.6 102070 73
2008-08-26 08:49 51°14.586 2°54.732 11.6 32 17.5 102070 75
2008-08-26 08:50 51°14.644 2°54.486 12.5 39 17.5 102060 75
2008-08-26 08:51 51°14.71 2°54.22 12.6 38 17.5 102050 76
2008-08-26 08:52 51°14.767 2°53.939 14.4 34 17.4 102050 76
2008-08-26 08:53 51°14.815 2°53.645 12 41 17.5 102050 78
2008-08-26 08:54 51°14.854 2°53.346 11.2 37 17.4 102050 77
2008-08-26 08:55 51°14.892 2°53.046 10.6 33 17.4 102060 79
2008-08-26 08:56 51°14.937 2°52.748 13.3 33 17.4 102060 79
2008-08-26 08:57 51°14.982 2°52.452 14.4 319 17.3 102050 78
2008-08-26 08:58 51°15.021 2°52.155 12.4 316 17.4 102060 79
2008-08-26 08:59 51°15.068 2°51.86 14.4 317 17.4 102050 79
2008-08-26 09:00 51°15.11 2°51.565 14.9 36 17.3 102050 78
2008-08-26 09:01 51°15.157 2°51.271 12 39 17.4 102040 79
2008-08-26 09:02 51°15.209 2°50.979 12.5 37 17.4 102050 79
2008-08-26 09:03 51°15.266 2°50.688 13 316 17.4 102050 80
2008-08-26 09:04 51°15.326 2°50.399 14.2 315 17.4 102060 81
2008-08-26 09:05 51°15.387 2°50.109 14.5 318 17.4 102050 81
2008-08-26 09:06 51°15.446 2°49.818 13.1 39 17.4 102050 81
2008-08-26 09:07 51°15.505 2°49.529 15.9 35 17.4 102050 80
2008-08-26 09:08 51°15.564 2°49.241 11.5 318 17.4 102050 80
2008-08-26 09:09 51°15.622 2°48.952 13 316 17.4 102050 81
2008-08-26 09:10 51°15.679 2°48.661 17 316 17.4 102050 81
2008-08-26 09:11 51°15.728 2°48.366 14 320 17.5 102060 83
2008-08-26 09:12 51°15.783 2°48.076 13.5 316 17.4 102040 82
2008-08-26 09:13 51°15.843 2°47.789 15.4 317 17.4 102050 82
2008-08-26 09:14 51°15.905 2°47.503 16.1 317 17.5 102040 83
2008-08-26 09:15 51°15.967 2°47.217 14.7 318 17.5 102050 83
2008-08-26 09:16 51°16.029 2°46.932 14.7 316 17.4 102050 82
2008-08-26 09:17 51°16.083 2°46.643 12.5 317 17.5 102050 83
2008-08-26 09:18 51°16.143 2°46.356 15.8 39 17.5 102060 84
2008-08-26 09:19 51°16.208 2°46.071 13.2 318 17.4 102050 83
2008-08-26 09:20 51°16.269 2°45.781 14.2 315 17.4 102050 83
2008-08-26 09:21 51°16.333 2°45.493 13.4 318 17.4 102050 83
2008-08-26 09:22 51°16.417 2°45.217 15.1 316 17.4 102050 84
2008-08-26 09:23 51°16.52 2°44.95 16.6 37 17.4 102050 84
2008-08-26 09:24 51°16.62 2°44.682 14.7 38 17.3 102050 85
2008-08-26 09:25 51°16.721 2°44.416 15 37 17.3 102050 85
2008-08-26 09:26 51°16.823 2°44.145 11.6 316 17.3 102050 86
2008-08-26 09:27 51°16.89 2°43.862 16.1 323 17.3 102070 86
2008-08-26 09:28 51°16.884 2°43.562 13.8 325 17.3 102080 86
2008-08-26 09:29 51°16.868 2°43.259 15.1 325 17.3 102080 87
2008-08-26 09:30 51°16.895 2°42.963 12.9 315 17.3 102080 87
2008-08-26 09:31 51°16.998 2°42.703 12.2 35 17.2 102060 87
2008-08-26 09:32 51°17.103 2°42.446 13.1 318 17.2 102060 87
2008-08-26 09:33 51°17.105 2°42.155 12.7 329 17.1 102070 87
2008-08-26 09:34 51°17.078 2°41.862 16.8 329 17.1 102090 88
2008-08-26 09:35 51°17.074 2°41.567 15.3 320 17.1 102070 88
2008-08-26 09:36 51°17.157 2°41.294 14.3 36 17 102070 88
2008-08-26 09:37 51°17.289 2°41.061 11.7 35 17 102080 87
2008-08-26 09:38 51°17.425 2°40.83 11.6 37 17 102060 87
2008-08-26 09:39 51°17.564 2°40.601 15.1 37 17.1 102070 88
2008-08-26 09:40 51°17.698 2°40.37 11.8 32 17.1 102070 87
2008-08-26 09:41 51°17.833 2°40.139 12.1 37 17.1 102060 87
2008-08-26 09:42 51°17.973 2°39.914 14.9 35 17.2 102070 88
2008-08-26 09:43 51°18.116 2°39.697 13.5 35 17.1 102060 88
2008-08-26 09:44 51°18.26 2°39.474 13.4 32 17.1 102070 88
2008-08-26 09:45 51°18.404 2°39.253 13.5 35 17.1 102070 89
2008-08-26 09:46 51°18.556 2°39.039 13.1 34 17.1 102070 89
2008-08-26 09:47 51°18.699 2°38.815 12.4 40 17 102070 89
2008-08-26 09:48 51°18.839 2°38.588 12.1 35 17 102070 89
2008-08-26 09:49 51°18.977 2°38.36 14.2 35 17 102080 90
2008-08-26 09:50 51°19.116 2°38.133 14 36 16.9 102070 89
2008-08-26 09:51 51°19.269 2°37.924 11.2 38 16.9 102070 90
2008-08-26 09:52 51°19.419 2°37.713 11.9 25 17 102070 90
2008-08-26 09:53 51°19.562 2°37.494 12.2 23 17 102080 90
2008-08-26 09:54 51°19.715 2°37.287 11.2 21 17 102080 90
2008-08-26 09:55 51°19.853 2°37.103 11.6 23 16.9 102070 90
2008-08-26 09:56 51°19.929 2°37.008 11.4 26 16.9 102090 90
2008-08-26 09:57 51°19.985 2°36.936 8.7 28 16.9 102080 90
2008-08-26 09:58 51°20.029 2°36.898 7.7 26 17 102080 91
2008-08-26 09:59 51°20.062 2°36.891 9.7 25 17.1 102100 91
2008-08-26 10:00 51°20.085 2°36.901 9 28 17 102090 91
2008-08-26 10:01 51°20.104 2°36.921 10.9 24 17 102100 91
2008-08-26 10:02 51°20.121 2°36.948 7.5 248 17 102100 90
2008-08-26 10:03 51°20.136 2°36.978 8.8 258 17 102100 91
2008-08-26 10:04 51°20.15 2°37.008 9.2 258 17.1 102110 91
2008-08-26 10:05 51°20.205 2°37.067 5.7 25 17 102110 91
2008-08-26 10:06 51°20.175 2°37.19 7.4 6 17 102100 90
2008-08-26 10:07 51°20.108 2°37.124 10.8 340 17 102080 91
2008-08-26 10:08 51°20.046 2°37.032 9.8 344 16.9 102080 91
2008-08-26 10:09 51°19.997 2°36.948 11 337 16.9 102090 91
2008-08-26 10:10 51°19.99 2°36.894 8.7 319 16.8 102100 91
2008-08-26 10:11 51°20.009 2°36.881 7.3 22 16.9 102100 91
2008-08-26 10:12 51°20.036 2°36.876 9.2 21 16.9 102110 91
2008-08-26 10:13 51°20.057 2°36.883 9.6 23 17 102110 92
2008-08-26 10:14 51°20.077 2°36.896 10.2 22 17 102100 90
2008-08-26 10:15 51°20.098 2°36.908 9.2 245 17 102110 90
2008-08-26 10:16 51°20.118 2°36.924 7.4 22 17 102110 90
2008-08-26 10:17 51°20.134 2°36.944 9.6 246 17.1 102110 90
2008-08-26 10:18 51°20.149 2°36.969 9.4 252 17.2 102100 91
2008-08-26 10:19 51°20.164 2°36.997 11.4 258 17.1 102090 90
2008-08-26 10:20 51°20.176 2°37.027 7.3 263 17 102100 89
2008-08-26 10:21 51°20.188 2°37.055 5.8 265 17.1 102110 90
2008-08-26 10:22 51°20.199 2°37.083 5.7 264 17.1 102110 91
2008-08-26 10:23 51°20.211 2°37.109 5.9 264 17.1 102110 91
2008-08-26 10:24 51°20.223 2°37.135 6.9 262 17.1 102110 91
2008-08-26 10:25 51°20.235 2°37.161 7.5 260 17 102110 90
2008-08-26 10:26 51°20.247 2°37.186 9.3 257 17 102110 91
2008-08-26 10:27 51°20.258 2°37.213 7.6 261 17 102110 90
2008-08-26 10:28 51°20.271 2°37.239 7.6 261 17 102110 90
2008-08-26 10:29 51°20.283 2°37.265 8 259 17 102120 90
2008-08-26 10:30 51°20.308 2°37.279 9.2 24 17 102110 90
2008-08-26 10:31 51°20.331 2°37.22 9.9 333 17 102110 90
2008-08-26 10:32 51°20.291 2°37.152 9.6 344 17.1 102110 91
2008-08-26 10:33 51°20.23 2°37.074 9.5 342 17 102100 90
2008-08-26 10:34 51°20.188 2°37.015 8.5 336 17 102110 90
2008-08-26 10:35 51°20.17 2°36.963 8.8 325 17 102120 91
2008-08-26 10:36 51°20.175 2°36.909 9.1 28 17 102120 91
2008-08-26 10:37 51°20.194 2°36.86 8.3 28 17 102110 90
2008-08-26 10:38 51°20.214 2°36.813 10 27 17 102110 90
2008-08-26 10:39 51°20.235 2°36.79 9.5 23 17 102120 90
2008-08-26 10:40 51°20.255 2°36.789 7.3 24 17 102120 90
2008-08-26 10:41 51°20.272 2°36.8 8.2 245 17.1 102120 91
2008-08-26 10:42 51°20.289 2°36.816 7.8 249 17.2 102120 91
2008-08-26 10:43 51°20.303 2°36.839 8 256 17.2 102120 90
2008-08-26 10:44 51°20.316 2°36.863 5.9 265 17.1 102130 90
2008-08-26 10:45 51°20.328 2°36.886 6 263 17.1 102130 90
2008-08-26 10:46 51°20.339 2°36.909 7.5 261 17 102130 90
2008-08-26 10:47 51°20.35 2°36.932 6.9 262 17 102130 89
2008-08-26 10:48 51°20.362 2°36.954 6.7 261 16.9 102140 89
2008-08-26 10:49 51°20.372 2°36.975 5.4 263 17 102140 90
2008-08-26 10:50 51°20.382 2°36.997 5.4 259 17 102140 89
2008-08-26 10:51 51°20.392 2°37.018 4.2 261 17.1 102130 90
2008-08-26 10:52 51°20.401 2°37.04 6.1 265 17 102140 88
2008-08-26 10:53 51°20.411 2°37.061 7.6 261 17 102140 89
2008-08-26 10:54 51°20.422 2°37.082 7.9 261 17 102130 89
2008-08-26 10:55 51°20.434 2°37.101 7.8 256 17 102130 89
2008-08-26 10:56 51°20.464 2°37.084 8.6 26 17.1 102120 89
2008-08-26 10:57 51°20.47 2°37.031 9 340 17.1 102130 89
2008-08-26 10:58 51°20.438 2°37.014 9.7 357 17 102120 87
2008-08-26 10:59 51°20.397 2°37.003 9.1 350 16.9 102140 88
2008-08-26 11:00 51°20.37 2°36.986 8.5 344 16.9 102120 88
2008-08-26 11:01 51°20.355 2°36.975 8.7 340 16.9 102120 88
2008-08-26 11:02 51°20.346 2°36.971 9.1 347 16.9 102130 87
2008-08-26 11:03 51°20.338 2°36.974 9.1 345 16.9 102130 87
2008-08-26 11:04 51°20.331 2°36.983 8.9 354 16.8 102130 86
2008-08-26 11:05 51°20.32 2°36.995 8.9 356 16.9 102130 86
2008-08-26 11:06 51°20.303 2°37.003 9.4 355 16.9 102140 87
2008-08-26 11:07 51°20.285 2°37.008 9.7 355 16.9 102140 87
2008-08-26 11:08 51°20.273 2°37.016 9.2 349 17 102140 88
2008-08-26 11:09 51°20.27 2°37.031 8.1 1 16.9 102130 86
2008-08-26 11:10 51°20.271 2°37.052 9 9 16.9 102140 87
2008-08-26 11:11 51°20.272 2°37.076 9 14 16.9 102140 86
2008-08-26 11:12 51°20.27 2°37.1 7.9 10 16.9 102140 87
2008-08-26 11:13 51°20.262 2°37.12 7.2 7 17 102140 87
2008-08-26 11:14 51°20.253 2°37.136 6.9 5 17 102150 87
2008-08-26 11:15 51°20.243 2°37.15 7.9 3 16.9 102140 86
2008-08-26 11:16 51°20.229 2°37.161 7.3 -999 16.9 102140 87
2008-08-26 11:17 51°20.215 2°37.167 7.8 356 16.9 102140 86
2008-08-26 11:18 51°20.201 2°37.17 7.9 351 16.9 102140 87
2008-08-26 11:19 51°20.186 2°37.169 6.7 345 17 102140 89
2008-08-26 11:20 51°20.175 2°37.166 7.6 347 16.9 102140 88
2008-08-26 11:21 51°20.173 2°37.174 7.6 353 16.9 102140 87
2008-08-26 11:22 51°20.175 2°37.191 7.2 10 16.9 102150 88
2008-08-26 11:23 51°20.181 2°37.21 6.9 17 16.9 102150 88
2008-08-26 11:24 51°20.187 2°37.227 7.4 22 17 102160 89
2008-08-26 11:25 51°20.195 2°37.245 7.7 26 17 102160 89
2008-08-26 11:26 51°20.203 2°37.261 7.9 27 17 102150 89
2008-08-26 11:27 51°20.211 2°37.277 6.6 26 17 102160 89
2008-08-26 11:28 51°20.22 2°37.292 6.7 27 17 102160 89
2008-08-26 11:29 51°20.228 2°37.307 7.3 23 17 102160 90
2008-08-26 11:30 51°20.235 2°37.322 7.5 23 17 102150 89
2008-08-26 11:31 51°20.242 2°37.337 8.1 18 17 102150 89
2008-08-26 11:32 51°20.25 2°37.352 6.9 20 17 102160 90
2008-08-26 11:33 51°20.254 2°37.369 8.8 15 17.1 102150 90
2008-08-26 11:34 51°20.232 2°37.386 9.2 357 17 102140 89
2008-08-26 11:35 51°20.202 2°37.363 9 334 17 102150 89
2008-08-26 11:36 51°20.183 2°37.301 10.2 331 17 102150 89
2008-08-26 11:37 51°20.174 2°37.244 7.7 328 17 102150 89
2008-08-26 11:38 51°20.173 2°37.2 8.8 323 17 102150 89
2008-08-26 11:39 51°20.178 2°37.17 9.9 319 17 102150 88
2008-08-26 11:40 51°20.188 2°37.149 7.1 22 17 102160 88
2008-08-26 11:41 51°20.199 2°37.139 8.1 28 17.1 102150 88
2008-08-26 11:42 51°20.211 2°37.144 9.5 25 17 102160 88
2008-08-26 11:43 51°20.221 2°37.156 9.6 252 17 102150 88
2008-08-26 11:44 51°20.231 2°37.171 8.9 257 17 102150 88
2008-08-26 11:45 51°20.239 2°37.185 6.3 263 17 102160 89
2008-08-26 11:46 51°20.246 2°37.2 6.4 269 17 102160 89
2008-08-26 11:47 51°20.251 2°37.215 6.9 266 17 102160 88
2008-08-26 11:48 51°20.257 2°37.23 4.4 267 17 102160 89
2008-08-26 11:49 51°20.264 2°37.243 8.1 270 17 102160 89
2008-08-26 11:50 51°20.271 2°37.256 4.8 264 17 102160 89
2008-08-26 11:51 51°20.278 2°37.268 7.7 261 17 102170 89
2008-08-26 11:52 51°20.284 2°37.28 8.8 259 17.1 102170 90
2008-08-26 11:53 51°20.293 2°37.291 6.4 256 17.1 102170 90
2008-08-26 11:54 51°20.316 2°37.275 9.4 22 17.2 102170 90
2008-08-26 11:55 51°20.33 2°37.229 11.2 324 17.1 102160 89
2008-08-26 11:56 51°20.316 2°37.181 11.1 339 17 102160 88
2008-08-26 11:57 51°20.288 2°37.132 8.4 334 17 102160 88
2008-08-26 11:58 51°20.274 2°37.094 8.3 332 17 102160 87
2008-08-26 11:59 51°20.269 2°37.069 8.5 328 17.1 102170 88
2008-08-26 12:00 51°20.267 2°37.044 9 20 17.1 102170 87
2008-08-26 12:01 51°20.289 2°37.002 9.5 248 17.1 102160 88
2008-08-26 12:02 51°20.322 2°36.964 9.4 22 17.1 102160 88
2008-08-26 12:03 51°20.353 2°36.919 9.1 25 17.2 102160 89
2008-08-26 12:04 51°20.382 2°36.877 9.7 244 17.1 102160 88
2008-08-26 12:05 51°20.403 2°36.851 9.1 26 17.1 102160 88
2008-08-26 12:06 51°20.418 2°36.841 7.3 248 17.2 102160 88
2008-08-26 12:07 51°20.431 2°36.841 7.1 252 17.2 102160 89
2008-08-26 12:08 51°20.443 2°36.843 9.2 252 17.3 102160 89
2008-08-26 12:09 51°20.454 2°36.85 10.4 255 17.2 102160 88
2008-08-26 12:10 51°20.462 2°36.859 7.1 262 17.2 102170 88
2008-08-26 12:11 51°20.469 2°36.873 8.7 267 17.2 102170 88
2008-08-26 12:12 51°20.484 2°36.881 8.4 270 17.1 102170 87
2008-08-26 12:13 51°20.526 2°36.917 6.7 26 17.1 102180 88
2008-08-26 12:14 51°20.525 2°37.002 8.5 24 17.1 102170 88
2008-08-26 12:15 51°20.482 2°37.097 7.3 18 17.1 102170 88
2008-08-26 12:16 51°20.432 2°37.22 8.8 18 17.1 102170 89
2008-08-26 12:17 51°20.373 2°37.356 8.3 16 17 102170 88
2008-08-26 12:18 51°20.3 2°37.504 8.8 18 17 102170 89
2008-08-26 12:19 51°20.227 2°37.656 8.1 14 17 102170 89
2008-08-26 12:20 51°20.151 2°37.808 9.4 15 17 102170 90
2008-08-26 12:21 51°20.075 2°37.959 8.6 13 17 102170 90
2008-08-26 12:22 51°19.99 2°38.128 9.1 10 17.1 102180 90
2008-08-26 12:23 51°19.893 2°38.32 9.2 8 17.1 102170 91
2008-08-26 12:24 51°19.795 2°38.515 10.3 14 17.1 102170 91
2008-08-26 12:25 51°19.694 2°38.709 9 5 17.1 102170 91
2008-08-26 12:26 51°19.593 2°38.905 6.6 5 17 102170 91
2008-08-26 12:27 51°19.492 2°39.101 9.1 9 17 102170 91
2008-08-26 12:28 51°19.393 2°39.299 9.9 10 17 102170 91
2008-08-26 12:29 51°19.296 2°39.499 10.5 11 17 102170 91
2008-08-26 12:30 51°19.199 2°39.697 10.4 12 17 102170 91
2008-08-26 12:31 51°19.103 2°39.895 11.3 10 17 102170 92
2008-08-26 12:32 51°19.002 2°40.094 9.1 10 17 102170 91
2008-08-26 12:33 51°18.898 2°40.296 7.3 8 17 102170 92
2008-08-26 12:34 51°18.793 2°40.497 9.7 7 17 102170 92
2008-08-26 12:35 51°18.689 2°40.696 10.4 7 17 102170 92
2008-08-26 12:36 51°18.585 2°40.895 6.6 3 16.9 102170 92
2008-08-26 12:37 51°18.48 2°41.09 9 7 16.9 102160 93
2008-08-26 12:38 51°18.376 2°41.29 9.4 6 16.9 102170 94
2008-08-26 12:39 51°18.27 2°41.49 9.5 9 16.8 102170 94
2008-08-26 12:40 51°18.164 2°41.691 11.4 12 16.8 102170 95
2008-08-26 12:41 51°18.057 2°41.894 10.6 12 16.8 102170 95
2008-08-26 12:42 51°17.95 2°42.096 10.7 9 16.8 102170 95
2008-08-26 12:43 51°17.845 2°42.299 9.6 10 16.8 102170 95
2008-08-26 12:44 51°17.738 2°42.499 9.4 8 16.8 102170 96
2008-08-26 12:45 51°17.632 2°42.699 9.6 8 16.8 102170 96
2008-08-26 12:46 51°17.527 2°42.897 9.5 7 16.8 102170 96
2008-08-26 12:47 51°17.425 2°43.091 8.2 7 16.8 102180 96
2008-08-26 12:48 51°17.327 2°43.291 8.1 16 16.8 102170 96
2008-08-26 12:49 51°17.25 2°43.515 7.9 16 16.8 102180 96
2008-08-26 12:50 51°17.171 2°43.742 9.6 15 16.9 102180 96
2008-08-26 12:51 51°17.094 2°43.971 8.3 16 16.9 102180 96
2008-08-26 12:52 51°17.013 2°44.199 7.8 13 16.9 102180 96
2008-08-26 12:53 51°16.936 2°44.431 7.6 16 17 102180 96
2008-08-26 12:54 51°16.858 2°44.661 8.1 14 17 102180 96
2008-08-26 12:55 51°16.781 2°44.892 7.8 14 17 102180 96
2008-08-26 12:56 51°16.701 2°45.128 7.5 20 17 102180 96
2008-08-26 12:57 51°16.619 2°45.365 8 10 17 102180 95
2008-08-26 12:58 51°16.537 2°45.604 7.2 17 17.1 102180 95
2008-08-26 12:59 51°16.467 2°45.854 7.1 19 17.1 102180 95
2008-08-26 13:00 51°16.395 2°46.099 8.4 13 17.1 102180 94
2008-08-26 13:01 51°16.323 2°46.34 7.4 17 17.1 102180 94
2008-08-26 13:02 51°16.252 2°46.583 6.5 16 17.2 102180 94
2008-08-26 13:03 51°16.181 2°46.828 7.8 10 17.2 102180 93
2008-08-26 13:04 51°16.11 2°47.07 7.7 16 17.2 102180 93
2008-08-26 13:05 51°16.042 2°47.315 8.1 11 17.2 102180 93
2008-08-26 13:06 51°15.975 2°47.56 8.4 12 17.3 102180 93
2008-08-26 13:07 51°15.908 2°47.804 6.9 10 17.2 102180 93
2008-08-26 13:08 51°15.84 2°48.051 6.4 17 17.3 102180 93
2008-08-26 13:09 51°15.773 2°48.299 7.2 17 17.3 102190 93
2008-08-26 13:10 51°15.707 2°48.546 7.6 17 17.3 102180 92
2008-08-26 13:11 51°15.638 2°48.789 7.4 17 17.3 102180 92
2008-08-26 13:12 51°15.575 2°49.037 7 19 17.3 102180 92
2008-08-26 13:13 51°15.513 2°49.287 6.8 15 17.4 102180 92
2008-08-26 13:14 51°15.452 2°49.536 7.5 16 17.4 102190 92
2008-08-26 13:15 51°15.39 2°49.786 7.2 16 17.4 102190 92
2008-08-26 13:16 51°15.328 2°50.034 7.4 16 17.4 102190 92
2008-08-26 13:17 51°15.267 2°50.283 8.4 20 17.4 102190 92
2008-08-26 13:18 51°15.206 2°50.531 7.9 20 17.4 102190 91
2008-08-26 13:19 51°15.149 2°50.783 8 17 17.4 102190 91
2008-08-26 13:20 51°15.092 2°51.038 8.1 20 17.4 102190 91
2008-08-26 13:21 51°15.033 2°51.297 8 22 17.4 102190 90
2008-08-26 13:22 51°14.975 2°51.557 7.9 18 17.4 102190 90
2008-08-26 13:23 51°14.915 2°51.805 8.7 21 17.4 102190 90
2008-08-26 13:24 51°14.866 2°52.056 7.8 24 17.4 102200 91
2008-08-26 13:25 51°14.83 2°52.312 8 26 17.4 102200 90
2008-08-26 13:26 51°14.791 2°52.569 7.6 22 17.4 102200 90
2008-08-26 13:27 51°14.752 2°52.836 6.1 25 17.4 102200 90
2008-08-26 13:28 51°14.711 2°53.128 7.1 18 17.4 102200 90
2008-08-26 13:29 51°14.672 2°53.422 6.1 26 17.4 102200 90
2008-08-26 13:30 51°14.626 2°53.718 6 14 17.5 102200 90
2008-08-26 13:31 51°14.593 2°54.023 6.7 15 17.5 102200 90
2008-08-26 13:32 51°14.565 2°54.328 10.1 17 17.5 102190 89
2008-08-26 13:33 51°14.511 2°54.621 10.6 10 17.5 102180 88
2008-08-26 13:34 51°14.424 2°54.894 8.5 5 17.5 102180 88
2008-08-26 13:35 51°14.315 2°55.154 10.8 1 17.5 102180 87
2008-08-26 13:36 51°14.169 2°55.371 6.7 342 17.5 102190 86
2008-08-26 13:37 51°14.037 2°55.484 6.9 351 17.6 102200 85